sensor_id;sensor_type;location;lat;lon;timestamp;P1;P2;P0
76661;PMS5003;65579;45.534;6.212;2023-02-12T00:02:15;113;103;
76661;PMS5003;65579;45.534;6.212;2023-02-12T00:04:40;97;92;
76661;PMS5003;65579;45.534;6.212;2023-02-12T00:07:06;97;84;
76661;PMS5003;65579;45.534;6.212;2023-02-12T00:09:31;95;88;
76661;PMS5003;65579;45.534;6.212;2023-02-12T00:11:57;78;72;
76661;PMS5003;65579;45.534;6.212;2023-02-12T00:14:22;75;70;
76661;PMS5003;65579;45.534;6.212;2023-02-12T00:16:48;66;59;
76661;PMS5003;65579;45.534;6.212;2023-02-12T00:19:13;73;71;
76661;PMS5003;65579;45.534;6.212;2023-02-12T00:21:39;90;80;
76661;PMS5003;65579;45.534;6.212;2023-02-12T00:24:05;92;83;
76661;PMS5003;65579;45.534;6.212;2023-02-12T00:26:30;83;73;
76661;PMS5003;65579;45.534;6.212;2023-02-12T00:28:55;83;76;
76661;PMS5003;65579;45.534;6.212;2023-02-12T00:31:21;70;64;
76661;PMS5003;65579;45.534;6.212;2023-02-12T00:33:46;90;80;
76661;PMS5003;65579;45.534;6.212;2023-02-12T00:36:13;106;97;
76661;PMS5003;65579;45.534;6.212;2023-02-12T00:38:37;127;113;
76661;PMS5003;65579;45.534;6.212;2023-02-12T00:41:03;98;89;
76661;PMS5003;65579;45.534;6.212;2023-02-12T00:43:28;89;75;
76661;PMS5003;65579;45.534;6.212;2023-02-12T00:45:53;95;83;
76661;PMS5003;65579;45.534;6.212;2023-02-12T00:48:18;85;76;
76661;PMS5003;65579;45.534;6.212;2023-02-12T00:50:44;77;68;
76661;PMS5003;65579;45.534;6.212;2023-02-12T00:53:09;78;69;
76661;PMS5003;65579;45.534;6.212;2023-02-12T00:55:34;67;57;
76661;PMS5003;65579;45.534;6.212;2023-02-12T00:58:00;59;57;
76661;PMS5003;65579;45.534;6.212;2023-02-12T01:00:26;62;53;
76661;PMS5003;65579;45.534;6.212;2023-02-12T01:02:51;65;61;
76661;PMS5003;65579;45.534;6.212;2023-02-12T01:05:16;68;61;
76661;PMS5003;65579;45.534;6.212;2023-02-12T01:07:42;98;89;
76661;PMS5003;65579;45.534;6.212;2023-02-12T01:10:07;75;72;
76661;PMS5003;65579;45.534;6.212;2023-02-12T01:12:33;79;72;
76661;PMS5003;65579;45.534;6.212;2023-02-12T01:14:58;94;86;
76661;PMS5003;65579;45.534;6.212;2023-02-12T01:17:23;80;77;
76661;PMS5003;65579;45.534;6.212;2023-02-12T01:19:49;82;77;
76661;PMS5003;65579;45.534;6.212;2023-02-12T01:22:14;73;69;
76661;PMS5003;65579;45.534;6.212;2023-02-12T01:24:40;76;64;
76661;PMS5003;65579;45.534;6.212;2023-02-12T01:27:05;78;68;
76661;PMS5003;65579;45.534;6.212;2023-02-12T01:29:30;69;67;
76661;PMS5003;65579;45.534;6.212;2023-02-12T01:31:56;70;64;
76661;PMS5003;65579;45.534;6.212;2023-02-12T01:34:21;72;61;
76661;PMS5003;65579;45.534;6.212;2023-02-12T01:36:46;60;56;
76661;PMS5003;65579;45.534;6.212;2023-02-12T01:39:11;68;66;
76661;PMS5003;65579;45.534;6.212;2023-02-12T01:41:38;77;75;
76661;PMS5003;65579;45.534;6.212;2023-02-12T01:44:04;83;72;
76661;PMS5003;65579;45.534;6.212;2023-02-12T01:46:28;81;74;
76661;PMS5003;65579;45.534;6.212;2023-02-12T01:48:54;69;61;
76661;PMS5003;65579;45.534;6.212;2023-02-12T01:51:19;78;71;
76661;PMS5003;65579;45.534;6.212;2023-02-12T01:53:46;70;64;
76661;PMS5003;65579;45.534;6.212;2023-02-12T01:56:10;69;57;
76661;PMS5003;65579;45.534;6.212;2023-02-12T01:58:37;63;55;
76661;PMS5003;65579;45.534;6.212;2023-02-12T02:01:01;72;70;
76661;PMS5003;65579;45.534;6.212;2023-02-12T02:03:27;120;103;
76661;PMS5003;65579;45.534;6.212;2023-02-12T02:05:53;96;85;
76661;PMS5003;65579;45.534;6.212;2023-02-12T02:08:19;81;74;
76661;PMS5003;65579;45.534;6.212;2023-02-12T02:10:43;70;61;
76661;PMS5003;65579;45.534;6.212;2023-02-12T02:13:09;105;97;
76661;PMS5003;65579;45.534;6.212;2023-02-12T02:15:34;84;84;
76661;PMS5003;65579;45.534;6.212;2023-02-12T02:18:01;83;80;
76661;PMS5003;65579;45.534;6.212;2023-02-12T02:22:52;92;76;
76661;PMS5003;65579;45.534;6.212;2023-02-12T02:27:43;78;73;
76661;PMS5003;65579;45.534;6.212;2023-02-12T02:30:11;77;69;
76661;PMS5003;65579;45.534;6.212;2023-02-12T02:32:33;71;66;
76661;PMS5003;65579;45.534;6.212;2023-02-12T02:34:59;74;65;
76661;PMS5003;65579;45.534;6.212;2023-02-12T02:37:25;71;65;
76661;PMS5003;65579;45.534;6.212;2023-02-12T02:39:50;78;73;
76661;PMS5003;65579;45.534;6.212;2023-02-12T02:42:15;82;77;
76661;PMS5003;65579;45.534;6.212;2023-02-12T02:44:41;84;75;
76661;PMS5003;65579;45.534;6.212;2023-02-12T02:47:06;74;69;
76661;PMS5003;65579;45.534;6.212;2023-02-12T02:49:31;70;61;
76661;PMS5003;65579;45.534;6.212;2023-02-12T02:51:56;74;61;
76661;PMS5003;65579;45.534;6.212;2023-02-12T02:54:22;71;68;
76661;PMS5003;65579;45.534;6.212;2023-02-12T02:56:47;71;59;
76661;PMS5003;65579;45.534;6.212;2023-02-12T02:59:12;62;58;
76661;PMS5003;65579;45.534;6.212;2023-02-12T03:01:37;51;49;
76661;PMS5003;65579;45.534;6.212;2023-02-12T03:04:02;64;57;
76661;PMS5003;65579;45.534;6.212;2023-02-12T03:06:29;78;71;
76661;PMS5003;65579;45.534;6.212;2023-02-12T03:08:52;70;67;
76661;PMS5003;65579;45.534;6.212;2023-02-12T03:11:18;76;70;
76661;PMS5003;65579;45.534;6.212;2023-02-12T03:13:44;78;73;
76661;PMS5003;65579;45.534;6.212;2023-02-12T03:18:34;70;63;
76661;PMS5003;65579;45.534;6.212;2023-02-12T03:20:59;74;72;
76661;PMS5003;65579;45.534;6.212;2023-02-12T03:23:25;72;68;
76661;PMS5003;65579;45.534;6.212;2023-02-12T03:25:51;72;57;
76661;PMS5003;65579;45.534;6.212;2023-02-12T03:28:17;60;51;
76661;PMS5003;65579;45.534;6.212;2023-02-12T03:30:41;64;55;
76661;PMS5003;65579;45.534;6.212;2023-02-12T03:33:08;58;50;
76661;PMS5003;65579;45.534;6.212;2023-02-12T03:35:32;57;49;
76661;PMS5003;65579;45.534;6.212;2023-02-12T03:37:57;49;49;
76661;PMS5003;65579;45.534;6.212;2023-02-12T03:40:26;70;61;
76661;PMS5003;65579;45.534;6.212;2023-02-12T03:42:50;72;67;
76661;PMS5003;65579;45.534;6.212;2023-02-12T03:45:15;99;89;
76661;PMS5003;65579;45.534;6.212;2023-02-12T03:47:41;155;141;
76661;PMS5003;65579;45.534;6.212;2023-02-12T03:50:06;98;83;
76661;PMS5003;65579;45.534;6.212;2023-02-12T03:52:30;103;91;
76661;PMS5003;65579;45.534;6.212;2023-02-12T03:54:56;102;88;
76661;PMS5003;65579;45.534;6.212;2023-02-12T03:57:23;92;83;
76661;PMS5003;65579;45.534;6.212;2023-02-12T03:59:47;88;84;
76661;PMS5003;65579;45.534;6.212;2023-02-12T04:02:12;80;74;
76661;PMS5003;65579;45.534;6.212;2023-02-12T04:04:38;81;78;
76661;PMS5003;65579;45.534;6.212;2023-02-12T04:07:03;75;67;
76661;PMS5003;65579;45.534;6.212;2023-02-12T04:09:28;67;62;
76661;PMS5003;65579;45.534;6.212;2023-02-12T04:11:58;70;63;
76661;PMS5003;65579;45.534;6.212;2023-02-12T04:14:23;68;61;
76661;PMS5003;65579;45.534;6.212;2023-02-12T04:16:46;72;61;
76661;PMS5003;65579;45.534;6.212;2023-02-12T04:19:12;80;70;
76661;PMS5003;65579;45.534;6.212;2023-02-12T04:21:39;84;78;
76661;PMS5003;65579;45.534;6.212;2023-02-12T04:24:04;87;76;
76661;PMS5003;65579;45.534;6.212;2023-02-12T04:26:31;91;83;
76661;PMS5003;65579;45.534;6.212;2023-02-12T04:28:56;99;89;
76661;PMS5003;65579;45.534;6.212;2023-02-12T04:31:21;94;83;
76661;PMS5003;65579;45.534;6.212;2023-02-12T04:33:46;87;79;
76661;PMS5003;65579;45.534;6.212;2023-02-12T04:36:11;81;70;
76661;PMS5003;65579;45.534;6.212;2023-02-12T04:38:35;72;70;
76661;PMS5003;65579;45.534;6.212;2023-02-12T04:41:00;68;64;
76661;PMS5003;65579;45.534;6.212;2023-02-12T04:43:26;73;61;
76661;PMS5003;65579;45.534;6.212;2023-02-12T04:45:50;70;67;
76661;PMS5003;65579;45.534;6.212;2023-02-12T04:48:15;64;58;
76661;PMS5003;65579;45.534;6.212;2023-02-12T04:50:41;53;51;
76661;PMS5003;65579;45.534;6.212;2023-02-12T04:53:07;52;52;
76661;PMS5003;65579;45.534;6.212;2023-02-12T04:55:32;74;67;
76661;PMS5003;65579;45.534;6.212;2023-02-12T04:57:57;75;61;
76661;PMS5003;65579;45.534;6.212;2023-02-12T05:00:22;67;61;
76661;PMS5003;65579;45.534;6.212;2023-02-12T05:02:48;73;72;
76661;PMS5003;65579;45.534;6.212;2023-02-12T05:05:13;79;68;
76661;PMS5003;65579;45.534;6.212;2023-02-12T05:07:38;74;67;
76661;PMS5003;65579;45.534;6.212;2023-02-12T05:10:05;81;74;
76661;PMS5003;65579;45.534;6.212;2023-02-12T05:12:30;74;64;
76661;PMS5003;65579;45.534;6.212;2023-02-12T05:14:56;69;64;
76661;PMS5003;65579;45.534;6.212;2023-02-12T05:17:21;87;76;
76661;PMS5003;65579;45.534;6.212;2023-02-12T05:19:46;68;60;
76661;PMS5003;65579;45.534;6.212;2023-02-12T05:22:12;67;63;
76661;PMS5003;65579;45.534;6.212;2023-02-12T05:24:37;66;58;
76661;PMS5003;65579;45.534;6.212;2023-02-12T05:27:03;71;64;
76661;PMS5003;65579;45.534;6.212;2023-02-12T05:29:28;62;57;
76661;PMS5003;65579;45.534;6.212;2023-02-12T05:31:53;67;59;
76661;PMS5003;65579;45.534;6.212;2023-02-12T05:34:19;66;65;
76661;PMS5003;65579;45.534;6.212;2023-02-12T05:36:44;82;77;
76661;PMS5003;65579;45.534;6.212;2023-02-12T05:39:10;87;73;
76661;PMS5003;65579;45.534;6.212;2023-02-12T05:41:36;81;73;
76661;PMS5003;65579;45.534;6.212;2023-02-12T05:44:01;81;79;
76661;PMS5003;65579;45.534;6.212;2023-02-12T05:46:27;77;75;
76661;PMS5003;65579;45.534;6.212;2023-02-12T05:48:52;78;73;
76661;PMS5003;65579;45.534;6.212;2023-02-12T05:51:18;73;67;
76661;PMS5003;65579;45.534;6.212;2023-02-12T05:53:43;77;71;
76661;PMS5003;65579;45.534;6.212;2023-02-12T05:56:09;66;65;
76661;PMS5003;65579;45.534;6.212;2023-02-12T05:58:33;72;64;
76661;PMS5003;65579;45.534;6.212;2023-02-12T06:00:59;77;73;
76661;PMS5003;65579;45.534;6.212;2023-02-12T06:03:25;64;60;
76661;PMS5003;65579;45.534;6.212;2023-02-12T06:05:50;57;48;
76661;PMS5003;65579;45.534;6.212;2023-02-12T06:08:16;83;72;
76661;PMS5003;65579;45.534;6.212;2023-02-12T06:10:41;75;71;
76661;PMS5003;65579;45.534;6.212;2023-02-12T06:13:07;81;75;
76661;PMS5003;65579;45.534;6.212;2023-02-12T06:15:32;88;75;
76661;PMS5003;65579;45.534;6.212;2023-02-12T06:17:57;75;74;
76661;PMS5003;65579;45.534;6.212;2023-02-12T06:20:22;76;68;
76661;PMS5003;65579;45.534;6.212;2023-02-12T06:22:48;68;62;
76661;PMS5003;65579;45.534;6.212;2023-02-12T06:25:14;68;61;
76661;PMS5003;65579;45.534;6.212;2023-02-12T06:27:39;145;123;
76661;PMS5003;65579;45.534;6.212;2023-02-12T06:30:05;120;108;
76661;PMS5003;65579;45.534;6.212;2023-02-12T06:32:30;106;91;
76661;PMS5003;65579;45.534;6.212;2023-02-12T06:34:55;106;100;
76661;PMS5003;65579;45.534;6.212;2023-02-12T06:37:21;113;101;
76661;PMS5003;65579;45.534;6.212;2023-02-12T06:39:46;116;103;
76661;PMS5003;65579;45.534;6.212;2023-02-12T06:42:12;101;93;
76661;PMS5003;65579;45.534;6.212;2023-02-12T06:44:38;99;94;
76661;PMS5003;65579;45.534;6.212;2023-02-12T06:47:03;93;90;
76661;PMS5003;65579;45.534;6.212;2023-02-12T06:49:32;107;97;
76661;PMS5003;65579;45.534;6.212;2023-02-12T06:51:57;94;85;
76661;PMS5003;65579;45.534;6.212;2023-02-12T06:54:20;63;57;
76661;PMS5003;65579;45.534;6.212;2023-02-12T06:56:45;68;60;
76661;PMS5003;65579;45.534;6.212;2023-02-12T06:59:12;64;61;
76661;PMS5003;65579;45.534;6.212;2023-02-12T07:01:36;93;76;
76661;PMS5003;65579;45.534;6.212;2023-02-12T07:04:01;83;75;
76661;PMS5003;65579;45.534;6.212;2023-02-12T07:06:27;88;76;
76661;PMS5003;65579;45.534;6.212;2023-02-12T07:08:53;80;76;
76661;PMS5003;65579;45.534;6.212;2023-02-12T07:11:19;80;72;
76661;PMS5003;65579;45.534;6.212;2023-02-12T07:13:43;77;64;
76661;PMS5003;65579;45.534;6.212;2023-02-12T07:16:09;86;78;
76661;PMS5003;65579;45.534;6.212;2023-02-12T07:18:34;78;69;
76661;PMS5003;65579;45.534;6.212;2023-02-12T07:21:00;75;70;
76661;PMS5003;65579;45.534;6.212;2023-02-12T07:23:25;87;86;
76661;PMS5003;65579;45.534;6.212;2023-02-12T07:25:54;92;86;
76661;PMS5003;65579;45.534;6.212;2023-02-12T07:28:16;110;92;
76661;PMS5003;65579;45.534;6.212;2023-02-12T07:30:41;103;91;
76661;PMS5003;65579;45.534;6.212;2023-02-12T07:33:07;102;91;
76661;PMS5003;65579;45.534;6.212;2023-02-12T07:35:33;64;60;
76661;PMS5003;65579;45.534;6.212;2023-02-12T07:37:58;91;88;
76661;PMS5003;65579;45.534;6.212;2023-02-12T07:40:24;71;63;
76661;PMS5003;65579;45.534;6.212;2023-02-12T07:42:53;91;87;
76661;PMS5003;65579;45.534;6.212;2023-02-12T07:45:15;62;52;
76661;PMS5003;65579;45.534;6.212;2023-02-12T07:47:40;95;87;
76661;PMS5003;65579;45.534;6.212;2023-02-12T07:50:05;89;84;
76661;PMS5003;65579;45.534;6.212;2023-02-12T07:52:30;80;76;
76661;PMS5003;65579;45.534;6.212;2023-02-12T07:54:56;96;84;
76661;PMS5003;65579;45.534;6.212;2023-02-12T07:57:21;87;79;
76661;PMS5003;65579;45.534;6.212;2023-02-12T07:59:47;79;74;
76661;PMS5003;65579;45.534;6.212;2023-02-12T08:02:12;77;70;
76661;PMS5003;65579;45.534;6.212;2023-02-12T08:04:38;75;67;
76661;PMS5003;65579;45.534;6.212;2023-02-12T08:07:03;64;56;
76661;PMS5003;65579;45.534;6.212;2023-02-12T08:09:29;87;74;
76661;PMS5003;65579;45.534;6.212;2023-02-12T08:11:54;85;77;
76661;PMS5003;65579;45.534;6.212;2023-02-12T08:14:20;91;84;
76661;PMS5003;65579;45.534;6.212;2023-02-12T08:16:46;77;74;
76661;PMS5003;65579;45.534;6.212;2023-02-12T08:19:11;92;84;
76661;PMS5003;65579;45.534;6.212;2023-02-12T08:21:36;74;66;
76661;PMS5003;65579;45.534;6.212;2023-02-12T08:24:02;83;77;
76661;PMS5003;65579;45.534;6.212;2023-02-12T08:26:27;81;77;
76661;PMS5003;65579;45.534;6.212;2023-02-12T08:28:53;68;57;
76661;PMS5003;65579;45.534;6.212;2023-02-12T08:31:18;63;59;
76661;PMS5003;65579;45.534;6.212;2023-02-12T08:33:43;65;61;
76661;PMS5003;65579;45.534;6.212;2023-02-12T08:36:10;67;58;
76661;PMS5003;65579;45.534;6.212;2023-02-12T08:38:35;81;71;
76661;PMS5003;65579;45.534;6.212;2023-02-12T08:41:00;90;80;
76661;PMS5003;65579;45.534;6.212;2023-02-12T08:43:25;105;95;
76661;PMS5003;65579;45.534;6.212;2023-02-12T08:45:50;102;92;
76661;PMS5003;65579;45.534;6.212;2023-02-12T08:48:16;105;98;
76661;PMS5003;65579;45.534;6.212;2023-02-12T08:50:42;110;102;
76661;PMS5003;65579;45.534;6.212;2023-02-12T08:53:08;114;102;
76661;PMS5003;65579;45.534;6.212;2023-02-12T08:55:33;111;92;
76661;PMS5003;65579;45.534;6.212;2023-02-12T08:57:59;77;73;
76661;PMS5003;65579;45.534;6.212;2023-02-12T09:00:23;95;86;
76661;PMS5003;65579;45.534;6.212;2023-02-12T09:02:49;60;60;
76661;PMS5003;65579;45.534;6.212;2023-02-12T09:05:15;68;68;
76661;PMS5003;65579;45.534;6.212;2023-02-12T09:07:40;112;102;
76661;PMS5003;65579;45.534;6.212;2023-02-12T09:10:06;93;81;
76661;PMS5003;65579;45.534;6.212;2023-02-12T09:12:32;98;82;
76661;PMS5003;65579;45.534;6.212;2023-02-12T09:14:57;83;80;
76661;PMS5003;65579;45.534;6.212;2023-02-12T09:17:23;81;75;
76661;PMS5003;65579;45.534;6.212;2023-02-12T09:19:49;79;74;
76661;PMS5003;65579;45.534;6.212;2023-02-12T09:22:14;84;73;
76661;PMS5003;65579;45.534;6.212;2023-02-12T09:24:40;74;68;
76661;PMS5003;65579;45.534;6.212;2023-02-12T09:27:05;81;78;
76661;PMS5003;65579;45.534;6.212;2023-02-12T09:29:31;69;64;
76661;PMS5003;65579;45.534;6.212;2023-02-12T09:31:56;55;53;
76661;PMS5003;65579;45.534;6.212;2023-02-12T09:34:22;62;58;
76661;PMS5003;65579;45.534;6.212;2023-02-12T09:36:47;56;49;
76661;PMS5003;65579;45.534;6.212;2023-02-12T09:39:13;94;81;
76661;PMS5003;65579;45.534;6.212;2023-02-12T09:41:46;63;58;
76661;PMS5003;65579;45.534;6.212;2023-02-12T09:44:05;66;63;
76661;PMS5003;65579;45.534;6.212;2023-02-12T09:46:31;80;78;
76661;PMS5003;65579;45.534;6.212;2023-02-12T09:48:58;117;115;
76661;PMS5003;65579;45.534;6.212;2023-02-12T09:51:21;124;113;
76661;PMS5003;65579;45.534;6.212;2023-02-12T09:53:46;99;90;
76661;PMS5003;65579;45.534;6.212;2023-02-12T09:56:12;84;81;
76661;PMS5003;65579;45.534;6.212;2023-02-12T09:58:39;87;77;
76661;PMS5003;65579;45.534;6.212;2023-02-12T10:01:08;78;71;
76661;PMS5003;65579;45.534;6.212;2023-02-12T10:03:28;61;55;
76661;PMS5003;65579;45.534;6.212;2023-02-12T10:05:55;76;70;
76661;PMS5003;65579;45.534;6.212;2023-02-12T10:08:25;68;62;
76661;PMS5003;65579;45.534;6.212;2023-02-12T10:10:47;65;60;
76661;PMS5003;65579;45.534;6.212;2023-02-12T10:13:12;64;59;
76661;PMS5003;65579;45.534;6.212;2023-02-12T10:15:37;57;53;
76661;PMS5003;65579;45.534;6.212;2023-02-12T10:18:05;31;30;
76661;PMS5003;65579;45.534;6.212;2023-02-12T10:20:31;49;43;
76661;PMS5003;65579;45.534;6.212;2023-02-12T10:22:54;37;35;
76661;PMS5003;65579;45.534;6.212;2023-02-12T10:25:19;36;31;
76661;PMS5003;65579;45.534;6.212;2023-02-12T10:27:42;41;36;
76661;PMS5003;65579;45.534;6.212;2023-02-12T10:32:33;41;38;
76661;PMS5003;65579;45.534;6.212;2023-02-12T10:34:58;33;31;
76661;PMS5003;65579;45.534;6.212;2023-02-12T10:37:25;30;26;
76661;PMS5003;65579;45.534;6.212;2023-02-12T10:39:49;31;30;
76661;PMS5003;65579;45.534;6.212;2023-02-12T10:42:15;35;34;
76661;PMS5003;65579;45.534;6.212;2023-02-12T10:44:40;28;27;
76661;PMS5003;65579;45.534;6.212;2023-02-12T10:47:09;24;22;
76661;PMS5003;65579;45.534;6.212;2023-02-12T10:49:31;25;24;
76661;PMS5003;65579;45.534;6.212;2023-02-12T10:52:01;27;25;
76661;PMS5003;65579;45.534;6.212;2023-02-12T10:54:34;35;32;
76661;PMS5003;65579;45.534;6.212;2023-02-12T10:56:48;28;27;
76661;PMS5003;65579;45.534;6.212;2023-02-12T11:01:39;22;20;
76661;PMS5003;65579;45.534;6.212;2023-02-12T11:06:30;33;30;
76661;PMS5003;65579;45.534;6.212;2023-02-12T11:08:56;25;22;
76661;PMS5003;65579;45.534;6.212;2023-02-12T11:11:22;21;21;
76661;PMS5003;65579;45.534;6.212;2023-02-12T11:13:46;31;30;
76661;PMS5003;65579;45.534;6.212;2023-02-12T11:16:12;26;24;
76661;PMS5003;65579;45.534;6.212;2023-02-12T11:18:37;28;28;
76661;PMS5003;65579;45.534;6.212;2023-02-12T11:21:04;27;27;
76661;PMS5003;65579;45.534;6.212;2023-02-12T11:23:28;32;27;
76661;PMS5003;65579;45.534;6.212;2023-02-12T11:25:54;32;29;
76661;PMS5003;65579;45.534;6.212;2023-02-12T11:28:18;31;29;
76661;PMS5003;65579;45.534;6.212;2023-02-12T11:30:48;31;30;
76661;PMS5003;65579;45.534;6.212;2023-02-12T11:33:16;28;26;
76661;PMS5003;65579;45.534;6.212;2023-02-12T11:35:35;26;25;
76661;PMS5003;65579;45.534;6.212;2023-02-12T11:38:01;29;28;
76661;PMS5003;65579;45.534;6.212;2023-02-12T11:40:27;30;27;
76661;PMS5003;65579;45.534;6.212;2023-02-12T11:42:53;33;28;
76661;PMS5003;65579;45.534;6.212;2023-02-12T11:45:18;37;36;
76661;PMS5003;65579;45.534;6.212;2023-02-12T11:47:43;34;33;
76661;PMS5003;65579;45.534;6.212;2023-02-12T11:50:14;31;28;
76661;PMS5003;65579;45.534;6.212;2023-02-12T11:52:34;35;30;
76661;PMS5003;65579;45.534;6.212;2023-02-12T11:55:01;28;27;
76661;PMS5003;65579;45.534;6.212;2023-02-12T11:57:33;24;24;
76661;PMS5003;65579;45.534;6.212;2023-02-12T11:59:50;30;29;
76661;PMS5003;65579;45.534;6.212;2023-02-12T12:02:17;28;27;
76661;PMS5003;65579;45.534;6.212;2023-02-12T12:04:42;29;25;
76661;PMS5003;65579;45.534;6.212;2023-02-12T12:07:10;28;24;
76661;PMS5003;65579;45.534;6.212;2023-02-12T12:09:34;32;25;
76661;PMS5003;65579;45.534;6.212;2023-02-12T12:12:01;31;29;
76661;PMS5003;65579;45.534;6.212;2023-02-12T12:14:25;30;30;
76661;PMS5003;65579;45.534;6.212;2023-02-12T12:16:51;26;24;
76661;PMS5003;65579;45.534;6.212;2023-02-12T12:19:17;29;26;
76661;PMS5003;65579;45.534;6.212;2023-02-12T12:21:42;21;21;
76661;PMS5003;65579;45.534;6.212;2023-02-12T12:24:08;24;22;
76661;PMS5003;65579;45.534;6.212;2023-02-12T12:26:32;25;24;
76661;PMS5003;65579;45.534;6.212;2023-02-12T12:28:59;27;26;
76661;PMS5003;65579;45.534;6.212;2023-02-12T12:31:24;26;25;
76661;PMS5003;65579;45.534;6.212;2023-02-12T12:33:49;22;22;
76661;PMS5003;65579;45.534;6.212;2023-02-12T12:38:42;23;19;
76661;PMS5003;65579;45.534;6.212;2023-02-12T12:41:07;25;20;
76661;PMS5003;65579;45.534;6.212;2023-02-12T12:43:34;21;21;
76661;PMS5003;65579;45.534;6.212;2023-02-12T12:46:00;19;16;
76661;PMS5003;65579;45.534;6.212;2023-02-12T12:48:24;27;27;
76661;PMS5003;65579;45.534;6.212;2023-02-12T12:50:51;18;18;
76661;PMS5003;65579;45.534;6.212;2023-02-12T12:53:15;17;17;
76661;PMS5003;65579;45.534;6.212;2023-02-12T12:55:43;22;21;
76661;PMS5003;65579;45.534;6.212;2023-02-12T12:58:04;23;21;
76661;PMS5003;65579;45.534;6.212;2023-02-12T13:00:30;20;19;
76661;PMS5003;65579;45.534;6.212;2023-02-12T13:03:02;21;19;
76661;PMS5003;65579;45.534;6.212;2023-02-12T13:05:26;22;20;
76661;PMS5003;65579;45.534;6.212;2023-02-12T13:07:46;25;20;
76661;PMS5003;65579;45.534;6.212;2023-02-12T13:10:13;21;21;
76661;PMS5003;65579;45.534;6.212;2023-02-12T13:12:45;18;18;
76661;PMS5003;65579;45.534;6.212;2023-02-12T13:15:02;24;22;
76661;PMS5003;65579;45.534;6.212;2023-02-12T13:17:26;20;19;
76661;PMS5003;65579;45.534;6.212;2023-02-12T13:19:53;22;21;
76661;PMS5003;65579;45.534;6.212;2023-02-12T13:22:17;23;22;
76661;PMS5003;65579;45.534;6.212;2023-02-12T13:24:43;21;20;
76661;PMS5003;65579;45.534;6.212;2023-02-12T13:27:09;18;18;
76661;PMS5003;65579;45.534;6.212;2023-02-12T13:29:34;18;16;
76661;PMS5003;65579;45.534;6.212;2023-02-12T13:32:00;21;17;
76661;PMS5003;65579;45.534;6.212;2023-02-12T13:34:24;26;24;
76661;PMS5003;65579;45.534;6.212;2023-02-12T13:36:49;18;16;
76661;PMS5003;65579;45.534;6.212;2023-02-12T13:39:17;25;21;
76661;PMS5003;65579;45.534;6.212;2023-02-12T13:41:41;17;17;
76661;PMS5003;65579;45.534;6.212;2023-02-12T13:44:06;16;16;
76661;PMS5003;65579;45.534;6.212;2023-02-12T13:46:33;14;14;
76661;PMS5003;65579;45.534;6.212;2023-02-12T13:49:01;13;13;
76661;PMS5003;65579;45.534;6.212;2023-02-12T13:51:25;17;15;
76661;PMS5003;65579;45.534;6.212;2023-02-12T13:53:51;13;13;
76661;PMS5003;65579;45.534;6.212;2023-02-12T13:56:17;24;19;
76661;PMS5003;65579;45.534;6.212;2023-02-12T13:58:38;22;21;
76661;PMS5003;65579;45.534;6.212;2023-02-12T14:01:04;23;20;
76661;PMS5003;65579;45.534;6.212;2023-02-12T14:03:29;24;22;
76661;PMS5003;65579;45.534;6.212;2023-02-12T14:10:44;19;18;
76661;PMS5003;65579;45.534;6.212;2023-02-12T14:13:16;18;18;
76661;PMS5003;65579;45.534;6.212;2023-02-12T14:15:35;19;16;
76661;PMS5003;65579;45.534;6.212;2023-02-12T14:18:05;19;16;
76661;PMS5003;65579;45.534;6.212;2023-02-12T14:20:27;22;19;
76661;PMS5003;65579;45.534;6.212;2023-02-12T14:22:59;24;20;
76661;PMS5003;65579;45.534;6.212;2023-02-12T14:27:42;16;14;
76661;PMS5003;65579;45.534;6.212;2023-02-12T14:37:32;20;14;
76661;PMS5003;65579;45.534;6.212;2023-02-12T14:39:48;13;11;
76661;PMS5003;65579;45.534;6.212;2023-02-12T14:44:42;13;13;
76661;PMS5003;65579;45.534;6.212;2023-02-12T14:47:05;18;16;
76661;PMS5003;65579;45.534;6.212;2023-02-12T14:49:29;14;14;
76661;PMS5003;65579;45.534;6.212;2023-02-12T14:51:56;13;12;
76661;PMS5003;65579;45.534;6.212;2023-02-12T14:54:23;19;14;
76661;PMS5003;65579;45.534;6.212;2023-02-12T14:56:45;14;14;
76661;PMS5003;65579;45.534;6.212;2023-02-12T14:59:10;14;13;
76661;PMS5003;65579;45.534;6.212;2023-02-12T15:01:35;18;18;
76661;PMS5003;65579;45.534;6.212;2023-02-12T15:04:02;13;11;
76661;PMS5003;65579;45.534;6.212;2023-02-12T15:06:27;15;13;
76661;PMS5003;65579;45.534;6.212;2023-02-12T15:08:52;13;12;
76661;PMS5003;65579;45.534;6.212;2023-02-12T15:11:22;19;19;
76661;PMS5003;65579;45.534;6.212;2023-02-12T15:13:45;13;13;
76661;PMS5003;65579;45.534;6.212;2023-02-12T15:16:08;14;13;
76661;PMS5003;65579;45.534;6.212;2023-02-12T15:18:37;22;21;
76661;PMS5003;65579;45.534;6.212;2023-02-12T15:20:59;11;11;
76661;PMS5003;65579;45.534;6.212;2023-02-12T15:23:28;16;16;
76661;PMS5003;65579;45.534;6.212;2023-02-12T15:25:49;16;12;
76661;PMS5003;65579;45.534;6.212;2023-02-12T15:28:16;15;15;
76661;PMS5003;65579;45.534;6.212;2023-02-12T15:30:40;14;13;
76661;PMS5003;65579;45.534;6.212;2023-02-12T15:33:06;15;14;
76661;PMS5003;65579;45.534;6.212;2023-02-12T15:35:32;14;14;
76661;PMS5003;65579;45.534;6.212;2023-02-12T15:37:56;14;12;
76661;PMS5003;65579;45.534;6.212;2023-02-12T15:40:22;10;10;
76661;PMS5003;65579;45.534;6.212;2023-02-12T15:42:51;15;13;
76661;PMS5003;65579;45.534;6.212;2023-02-12T15:45:18;13;13;
76661;PMS5003;65579;45.534;6.212;2023-02-12T15:47:38;17;14;
76661;PMS5003;65579;45.534;6.212;2023-02-12T15:50:03;15;15;
76661;PMS5003;65579;45.534;6.212;2023-02-12T15:52:30;12;11;
76661;PMS5003;65579;45.534;6.212;2023-02-12T15:57:20;13;13;
76661;PMS5003;65579;45.534;6.212;2023-02-12T15:59:48;12;12;
76661;PMS5003;65579;45.534;6.212;2023-02-12T16:02:16;13;11;
76661;PMS5003;65579;45.534;6.212;2023-02-12T16:04:36;12;10;
76661;PMS5003;65579;45.534;6.212;2023-02-12T16:07:01;12;11;
76661;PMS5003;65579;45.534;6.212;2023-02-12T16:09:28;12;12;
76661;PMS5003;65579;45.534;6.212;2023-02-12T16:11:52;15;11;
76661;PMS5003;65579;45.534;6.212;2023-02-12T16:14:19;12;12;
76661;PMS5003;65579;45.534;6.212;2023-02-12T16:16:43;13;11;
76661;PMS5003;65579;45.534;6.212;2023-02-12T16:21:33;13;13;
76661;PMS5003;65579;45.534;6.212;2023-02-12T16:23:58;9;9;
76661;PMS5003;65579;45.534;6.212;2023-02-12T16:26:25;12;12;
76661;PMS5003;65579;45.534;6.212;2023-02-12T16:28:51;11;11;
76661;PMS5003;65579;45.534;6.212;2023-02-12T16:31:15;11;10;
76661;PMS5003;65579;45.534;6.212;2023-02-12T16:33:41;10;9;
76661;PMS5003;65579;45.534;6.212;2023-02-12T16:36:07;16;15;
76661;PMS5003;65579;45.534;6.212;2023-02-12T16:38:38;10;10;
76661;PMS5003;65579;45.534;6.212;2023-02-12T16:43:23;11;11;
76661;PMS5003;65579;45.534;6.212;2023-02-12T16:45:47;10;10;